createdAt,value
2022-12-27T00:00:17.820Z,22.27
2022-12-27T00:03:20.528Z,23.88
2022-12-27T00:06:25.574Z,22.92
2022-12-27T00:09:28.244Z,19.63
2022-12-27T00:12:30.346Z,20.98
2022-12-27T00:15:36.810Z,20.40
2022-12-27T00:18:40.719Z,19.60
2022-12-27T00:21:42.900Z,18.75
2022-12-27T00:24:45.284Z,17.50
2022-12-27T00:27:49.821Z,20.05
2022-12-27T00:30:57.064Z,17.92
2022-12-27T00:34:04.425Z,18.45
2022-12-27T00:37:06.545Z,23.63
2022-12-27T00:40:15.418Z,27.38
2022-12-27T00:43:17.605Z,20.17
2022-12-27T00:46:20.754Z,24.42
2022-12-27T00:49:23.184Z,20.00
2022-12-27T00:52:25.405Z,23.77
2022-12-27T00:55:27.510Z,23.08
2022-12-27T00:58:29.707Z,23.48
2022-12-27T01:01:35.220Z,20.92
2022-12-27T01:04:37.243Z,22.05
2022-12-27T01:07:39.857Z,25.20
2022-12-27T01:10:42.177Z,21.52
2022-12-27T01:13:47.351Z,26.85
2022-12-27T01:16:49.902Z,23.23
2022-12-27T01:19:52.831Z,19.20
2022-12-27T01:22:55.100Z,21.70
2022-12-27T01:26:06.453Z,20.13
2022-12-27T01:29:12.588Z,24.90
2022-12-27T01:32:15.830Z,17.67
2022-12-27T01:35:18.236Z,31.30
2022-12-27T01:38:20.640Z,26.55
2022-12-27T01:41:52.593Z,23.65
2022-12-27T01:44:57.872Z,23.95
2022-12-27T01:48:10.425Z,22.42
2022-12-27T01:51:12.860Z,25.08
2022-12-27T01:54:15.209Z,21.77
2022-12-27T01:57:17.565Z,25.98
2022-12-27T02:00:20.344Z,25.83
2022-12-27T02:03:30.539Z,22.38
2022-12-27T02:06:34.213Z,25.58
2022-12-27T02:09:44.807Z,29.40
2022-12-27T02:12:47.285Z,22.95
2022-12-27T02:15:49.893Z,24.52
2022-12-27T02:18:51.905Z,28.55
2022-12-27T02:22:21.135Z,19.95
2022-12-27T02:25:45.793Z,23.65
2022-12-27T02:29:06.107Z,22.63
2022-12-27T02:32:35.370Z,29.25
2022-12-27T02:35:43.469Z,22.90
2022-12-27T02:38:51.005Z,26.90
2022-12-27T02:42:13.642Z,24.77
2022-12-27T02:45:39.812Z,27.85
2022-12-27T02:49:12.701Z,23.20
2022-12-27T02:52:55.172Z,27.70
2022-12-27T02:56:38.953Z,32.28
2022-12-27T03:00:23.878Z,34.08
2022-12-27T03:04:07.165Z,27.10
2022-12-27T03:07:14.951Z,26.85
2022-12-27T03:11:11.584Z,30.00
2022-12-27T03:14:54.104Z,25.88
2022-12-27T03:18:12.053Z,27.58
2022-12-27T03:21:42.450Z,20.63
2022-12-27T03:25:03.253Z,27.67
2022-12-27T03:28:28.937Z,24.08
2022-12-27T03:31:53.624Z,23.95
2022-12-27T03:35:10.763Z,32.90
2022-12-27T03:38:15.207Z,28.77
2022-12-27T03:42:17.327Z,24.35
2022-12-27T03:45:21.978Z,32.08
2022-12-27T03:48:26.905Z,23.92
2022-12-27T03:51:37.531Z,29.15
2022-12-27T03:54:42.248Z,22.58
2022-12-27T03:57:44.711Z,24.15
2022-12-27T04:00:47.585Z,28.27
2022-12-27T04:03:49.621Z,20.95
2022-12-27T04:06:51.844Z,19.25
2022-12-27T04:10:12.880Z,18.42
2022-12-27T04:13:33.823Z,23.42
2022-12-27T04:16:54.780Z,22.98
2022-12-27T04:20:15.703Z,24.42
2022-12-27T04:23:40.734Z,26.30
2022-12-27T04:27:02.224Z,29.67
2022-12-27T04:30:23.223Z,25.10
2022-12-27T04:33:43.756Z,20.83
2022-12-27T04:36:46.323Z,21.75
2022-12-27T04:40:06.880Z,23.42
2022-12-27T04:43:28.072Z,26.60
2022-12-27T04:46:49.449Z,18.30
2022-12-27T04:50:10.419Z,23.65
2022-12-27T04:53:34.243Z,20.83
2022-12-27T04:56:36.241Z,22.10
2022-12-27T04:59:57.269Z,22.95
2022-12-27T05:03:01.066Z,21.80
2022-12-27T05:06:04.129Z,26.58
2022-12-27T05:09:35.682Z,21.20
2022-12-27T05:12:56.233Z,24.85
2022-12-27T05:15:58.371Z,17.23
2022-12-27T05:19:00.517Z,23.05
2022-12-27T05:22:21.287Z,22.92
2022-12-27T05:25:35.648Z,28.13
2022-12-27T05:28:37.735Z,30.90
2022-12-27T05:31:39.973Z,25.58
2022-12-27T05:34:42.282Z,26.75
2022-12-27T05:37:47.638Z,25.83
2022-12-27T05:40:52.124Z,30.67
2022-12-27T05:43:54.188Z,30.20
2022-12-27T05:46:56.341Z,26.83
2022-12-27T05:49:58.458Z,26.10
2022-12-27T05:53:00.473Z,31.15
2022-12-27T05:56:02.803Z,41.78
2022-12-27T05:59:05.628Z,32.40
2022-12-27T06:02:07.725Z,29.35
2022-12-27T06:05:10.716Z,27.23
2022-12-27T06:08:13.188Z,23.48
2022-12-27T06:11:17.944Z,26.05
2022-12-27T06:14:20.093Z,23.75
2022-12-27T06:17:22.286Z,25.52
2022-12-27T06:20:24.529Z,22.48
2022-12-27T06:23:26.597Z,27.70
2022-12-27T06:26:30.169Z,26.90
2022-12-27T06:29:32.407Z,16.85
2022-12-27T06:32:35.452Z,23.75
2022-12-27T06:35:37.531Z,25.48
2022-12-27T06:38:39.995Z,26.40
2022-12-27T06:41:42.100Z,24.13
2022-12-27T06:44:44.196Z,23.75
2022-12-27T06:47:46.217Z,25.63
2022-12-27T06:50:48.268Z,25.48
2022-12-27T06:53:50.649Z,21.45
2022-12-27T06:56:52.713Z,27.85
2022-12-27T06:59:54.731Z,18.98
2022-12-27T07:02:56.787Z,16.73
2022-12-27T07:06:02.609Z,20.85
2022-12-27T07:09:06.015Z,17.60
2022-12-27T07:12:08.116Z,19.92
2022-12-27T07:15:10.738Z,23.77
2022-12-27T07:18:12.918Z,22.40
2022-12-27T07:21:17.970Z,21.48
2022-12-27T07:24:20.100Z,22.20
2022-12-27T07:27:22.091Z,24.58
2022-12-27T07:30:24.155Z,23.75
2022-12-27T07:33:26.557Z,24.58
2022-12-27T07:36:32.720Z,20.88
2022-12-27T07:39:34.776Z,27.73
2022-12-27T07:42:36.761Z,28.65
2022-12-27T07:45:38.828Z,23.13
2022-12-27T07:48:45.231Z,25.83
2022-12-27T07:51:47.217Z,24.70
2022-12-27T07:54:50.320Z,28.58
2022-12-27T07:57:52.412Z,24.08
2022-12-27T08:00:54.483Z,31.70
2022-12-27T08:03:56.909Z,35.10
2022-12-27T08:07:08.958Z,28.60
2022-12-27T08:10:12.050Z,26.92
2022-12-27T08:13:14.973Z,32.00
2022-12-27T08:16:20.604Z,26.70
2022-12-27T08:19:31.072Z,33.42
2022-12-27T08:22:33.231Z,28.27
2022-12-27T08:25:40.924Z,37.05
2022-12-27T08:28:46.993Z,23.77
2022-12-27T08:31:49.292Z,24.95
2022-12-27T08:34:51.278Z,33.83
2022-12-27T08:37:53.378Z,35.63
2022-12-27T08:40:55.771Z,28.30
2022-12-27T08:43:57.852Z,29.33
2022-12-27T08:46:59.928Z,29.25
2022-12-27T08:50:01.929Z,32.60
2022-12-27T08:53:06.116Z,30.45
2022-12-27T08:56:08.199Z,35.13
2022-12-27T08:59:10.253Z,34.05
2022-12-27T09:02:13.007Z,37.97
2022-12-27T09:05:15.937Z,37.00
2022-12-27T09:08:18.035Z,37.70
2022-12-27T09:11:31.625Z,37.53
2022-12-27T09:14:34.054Z,34.20
2022-12-27T09:17:36.301Z,31.75
2022-12-27T09:20:38.817Z,27.92
2022-12-27T09:23:41.566Z,31.58
2022-12-27T09:26:43.712Z,32.55
2022-12-27T09:29:48.453Z,34.92
2022-12-27T09:32:51.079Z,33.50
2022-12-27T09:35:53.245Z,34.88
2022-12-27T09:38:56.498Z,31.77
2022-12-27T09:45:41.082Z,35.88
2022-12-27T09:48:43.124Z,34.58
2022-12-27T09:51:54.462Z,31.70
2022-12-27T09:55:08.289Z,36.33
2022-12-27T09:58:36.644Z,36.88
2022-12-27T10:01:44.734Z,38.97
2022-12-27T10:05:18.583Z,51.78
2022-12-27T10:08:18.256Z,37.00
2022-12-27T10:11:38.881Z,38.67
2022-12-27T10:15:05.603Z,34.78
2022-12-27T10:18:26.119Z,34.30
2022-12-27T10:21:30.281Z,35.78
2022-12-27T10:24:44.908Z,36.63
2022-12-27T10:27:48.559Z,39.75
2022-12-27T10:30:50.570Z,28.83
2022-12-27T10:33:53.368Z,20.33
2022-12-27T10:36:55.451Z,42.67
2022-12-27T10:40:13.386Z,41.28
2022-12-27T10:43:20.040Z,31.80
2022-12-27T10:46:32.756Z,33.53
2022-12-27T10:49:36.597Z,35.00
2022-12-27T10:52:38.776Z,33.35
2022-12-27T10:55:40.800Z,37.17
2022-12-27T10:58:58.587Z,38.45
2022-12-27T11:02:02.586Z,45.17
2022-12-27T11:05:05.153Z,43.65
2022-12-27T11:08:20.952Z,36.47
2022-12-27T11:11:25.878Z,36.35
2022-12-27T11:14:27.869Z,32.17
2022-12-27T11:17:43.666Z,39.15
2022-12-27T11:20:57.944Z,45.28
2022-12-27T11:24:02.406Z,36.17
2022-12-27T11:27:04.827Z,36.75
2022-12-27T11:30:20.176Z,31.92
2022-12-27T11:33:42.499Z,27.77
2022-12-27T11:36:48.978Z,29.00
2022-12-27T11:40:10.498Z,34.70
2022-12-27T11:43:19.648Z,25.52
2022-12-27T11:46:31.039Z,24.60
2022-12-27T11:49:36.863Z,30.00
2022-12-27T11:52:51.422Z,30.48
2022-12-27T11:56:06.684Z,21.85
2022-12-27T11:59:35.216Z,25.70
2022-12-27T12:03:01.427Z,25.73
2022-12-27T12:06:06.302Z,31.25
2022-12-27T12:09:45.568Z,40.00
2022-12-27T12:12:59.394Z,27.70
2022-12-27T12:16:24.219Z,34.13
2022-12-27T12:20:04.176Z,42.95
2022-12-27T12:23:13.172Z,37.17
2022-12-27T12:26:23.229Z,34.47
2022-12-27T12:30:26.997Z,35.55
2022-12-27T12:33:50.101Z,34.05
2022-12-27T12:37:30.928Z,37.25
2022-12-27T12:40:58.014Z,34.92
2022-12-27T12:44:09.061Z,38.75
2022-12-27T12:47:35.479Z,40.13
2022-12-27T12:50:44.177Z,37.85
2022-12-27T12:54:01.320Z,25.20
2022-12-27T12:57:15.310Z,37.53
2022-12-27T13:00:40.156Z,53.45
2022-12-27T13:03:50.414Z,40.75
2022-12-27T13:07:40.998Z,42.78
2022-12-27T13:11:02.227Z,36.70
2022-12-27T13:14:16.241Z,48.13
2022-12-27T13:17:43.462Z,42.15
2022-12-27T13:21:26.143Z,42.28
2022-12-27T13:24:50.799Z,42.88
2022-12-27T13:28:09.505Z,30.92
2022-12-27T13:31:52.305Z,39.83
2022-12-27T13:35:20.220Z,44.92
2022-12-27T13:38:33.306Z,25.65
2022-12-27T13:41:44.375Z,27.67
2022-12-27T13:45:20.367Z,26.00
2022-12-27T13:48:42.746Z,28.63
2022-12-27T13:51:52.141Z,26.30
2022-12-27T13:55:16.813Z,23.05
2022-12-27T13:58:37.250Z,26.63
2022-12-27T14:01:58.823Z,22.00
2022-12-27T14:05:35.338Z,22.10
2022-12-27T14:08:56.093Z,17.38
2022-12-27T14:12:29.562Z,22.30
2022-12-27T14:15:31.497Z,16.10
2022-12-27T14:19:03.125Z,19.23
2022-12-27T14:22:17.162Z,19.30
2022-12-27T14:25:46.950Z,27.58
2022-12-27T14:29:01.339Z,20.35
2022-12-27T14:32:21.951Z,22.67
2022-12-27T14:35:54.815Z,17.95
2022-12-27T14:39:12.689Z,19.20
2022-12-27T14:42:29.453Z,20.05
2022-12-27T14:46:05.195Z,16.30
2022-12-27T14:49:24.385Z,19.48
2022-12-27T14:52:54.136Z,19.35
2022-12-27T14:56:24.765Z,18.13
2022-12-27T14:59:40.980Z,14.05
2022-12-27T15:02:49.327Z,15.80
2022-12-27T15:09:23.791Z,15.18
2022-12-27T15:12:35.431Z,16.52
2022-12-27T15:15:52.732Z,13.00
2022-12-27T15:19:10.138Z,14.77
2022-12-27T15:22:34.953Z,12.90
2022-12-27T15:26:01.210Z,10.07
2022-12-27T15:29:03.312Z,18.52
2022-12-27T15:32:26.595Z,10.60
2022-12-27T15:35:28.777Z,11.77
2022-12-27T15:38:54.520Z,6.32
2022-12-27T15:42:22.947Z,7.72
2022-12-27T15:45:42.978Z,5.85
2022-12-27T15:49:09.731Z,7.97
2022-12-27T15:52:48.638Z,5.32
2022-12-27T15:55:59.737Z,4.53
2022-12-27T15:59:39.041Z,8.80
2022-12-27T16:02:44.044Z,9.90
2022-12-27T16:05:52.492Z,3.35
2022-12-27T16:09:23.606Z,3.58
2022-12-27T16:12:37.705Z,3.72
2022-12-27T16:15:51.173Z,5.15
2022-12-27T16:19:03.132Z,3.30
2022-12-27T16:22:34.640Z,7.00
2022-12-27T16:25:43.661Z,2.95
2022-12-27T16:29:03.308Z,3.90
2022-12-27T16:32:32.018Z,2.17
2022-12-27T16:35:34.060Z,4.57
2022-12-27T16:38:39.664Z,3.90
2022-12-27T16:41:57.168Z,3.08
2022-12-27T16:45:23.190Z,2.03
2022-12-27T16:48:49.635Z,7.53
2022-12-27T16:52:23.513Z,6.15
2022-12-27T16:56:04.649Z,4.43
2022-12-27T17:02:38.393Z,9.38
2022-12-27T17:05:52.943Z,9.10
2022-12-27T17:09:08.784Z,2.30
2022-12-27T17:12:17.824Z,4.07
2022-12-27T17:15:22.307Z,4.57
2022-12-27T17:18:33.777Z,7.07
2022-12-27T17:21:41.685Z,10.55
2022-12-27T17:24:47.785Z,5.93
2022-12-27T17:28:05.623Z,8.60
2022-12-27T17:31:22.614Z,11.38
2022-12-27T17:34:36.846Z,5.78
2022-12-27T17:38:16.345Z,8.10
2022-12-27T17:42:07.300Z,11.57
2022-12-27T17:45:18.269Z,9.45
2022-12-27T17:48:29.370Z,8.43
2022-12-27T17:51:34.595Z,10.57
2022-12-27T17:55:00.273Z,5.78
2022-12-27T17:58:06.099Z,4.85
2022-12-27T18:01:08.357Z,5.82
2022-12-27T18:04:19.870Z,4.38
2022-12-27T18:07:30.314Z,4.80
2022-12-27T18:10:34.749Z,5.47
2022-12-27T18:13:44.712Z,7.22
2022-12-27T18:16:47.867Z,7.50
2022-12-27T18:19:49.935Z,5.75
2022-12-27T18:23:01.140Z,9.00
2022-12-27T18:26:13.395Z,7.70
2022-12-27T18:29:16.146Z,8.52
2022-12-27T18:32:19.519Z,8.18
2022-12-27T18:35:24.428Z,6.00
2022-12-27T18:38:32.641Z,8.90
2022-12-27T18:41:47.803Z,6.03
2022-12-27T18:44:55.204Z,3.58
2022-12-27T18:48:02.369Z,8.07
2022-12-27T18:51:22.602Z,10.27
2022-12-27T18:54:29.745Z,4.35
2022-12-27T18:57:37.745Z,12.13
2022-12-27T19:00:54.891Z,12.10
2022-12-27T19:04:17.558Z,5.25
2022-12-27T19:07:19.899Z,8.95
2022-12-27T19:10:25.656Z,7.35
2022-12-27T19:13:49.911Z,8.30
2022-12-27T19:16:56.160Z,13.38
2022-12-27T19:20:03.346Z,9.85
2022-12-27T19:23:24.279Z,10.73
2022-12-27T19:26:32.974Z,9.52
2022-12-27T19:29:40.997Z,8.15
2022-12-27T19:32:44.730Z,11.73
2022-12-27T19:35:46.802Z,9.40
2022-12-27T19:38:51.634Z,6.93
2022-12-27T19:42:01.016Z,8.00
2022-12-27T19:45:10.878Z,8.68
2022-12-27T19:48:14.028Z,4.97
2022-12-27T19:51:19.324Z,10.57
2022-12-27T19:54:23.141Z,11.23
2022-12-27T19:57:25.349Z,5.95
2022-12-27T20:00:28.022Z,6.75
2022-12-27T20:03:30.790Z,13.23
2022-12-27T20:06:33.987Z,5.90
2022-12-27T20:09:36.030Z,7.10
2022-12-27T20:12:38.163Z,4.57
2022-12-27T20:15:40.270Z,10.80
2022-12-27T20:18:43.838Z,11.02
2022-12-27T20:21:47.336Z,10.70
2022-12-27T20:24:49.491Z,12.02
2022-12-27T20:27:51.732Z,11.73
2022-12-27T20:30:53.831Z,12.25
2022-12-27T20:33:56.458Z,15.57
2022-12-27T20:36:58.729Z,9.32
2022-12-27T20:40:00.791Z,8.80
2022-12-27T20:43:03.164Z,6.72
2022-12-27T20:46:16.729Z,6.28
2022-12-27T20:49:18.867Z,6.35
2022-12-27T20:52:25.699Z,14.90
2022-12-27T20:55:33.496Z,15.00
2022-12-27T20:58:35.848Z,14.38
2022-12-27T21:01:38.066Z,6.28
2022-12-27T21:04:41.021Z,5.40
2022-12-27T21:07:43.106Z,5.43
2022-12-27T21:10:45.122Z,8.52
2022-12-27T21:13:48.900Z,8.00
2022-12-27T21:16:52.869Z,7.55
2022-12-27T21:19:55.274Z,5.60
2022-12-27T21:22:57.365Z,10.27
2022-12-27T21:26:09.040Z,8.18
2022-12-27T21:29:14.410Z,14.80
2022-12-27T21:32:17.933Z,9.60
2022-12-27T21:35:20.231Z,8.70
2022-12-27T21:38:22.508Z,7.70
2022-12-27T21:41:27.519Z,11.30
2022-12-27T21:44:30.080Z,7.38
2022-12-27T21:47:32.756Z,4.95
2022-12-27T21:50:37.411Z,8.77
2022-12-27T21:53:40.282Z,6.40
2022-12-27T21:56:42.609Z,5.43
2022-12-27T21:59:44.867Z,9.65
2022-12-27T22:02:47.073Z,9.48
2022-12-27T22:05:49.212Z,8.23
2022-12-27T22:08:53.876Z,14.38
2022-12-27T22:11:55.942Z,8.88
2022-12-27T22:14:57.963Z,6.32
2022-12-27T22:18:00.043Z,7.60
2022-12-27T22:21:04.920Z,6.97
2022-12-27T22:24:11.955Z,6.55
2022-12-27T22:27:14.084Z,9.55
2022-12-27T22:30:16.222Z,12.07
2022-12-27T22:33:18.260Z,5.72
2022-12-27T22:36:22.971Z,9.05
2022-12-27T22:39:24.953Z,8.93
2022-12-27T22:42:27.081Z,10.80
2022-12-27T22:45:29.188Z,6.72
2022-12-27T22:48:31.204Z,5.18
2022-12-27T22:51:36.252Z,7.55
2022-12-27T22:55:05.595Z,8.02
2022-12-27T22:58:00.329Z,9.02
2022-12-27T23:01:02.341Z,7.47
2022-12-27T23:04:06.312Z,10.75
2022-12-27T23:07:08.398Z,6.57
2022-12-27T23:10:10.494Z,12.63
2022-12-27T23:13:12.449Z,8.60
2022-12-27T23:16:15.383Z,16.75
2022-12-27T23:19:21.407Z,12.23
2022-12-27T23:22:23.467Z,8.35
2022-12-27T23:25:25.457Z,9.60
2022-12-27T23:28:27.537Z,8.48
2022-12-27T23:31:30.699Z,6.78
2022-12-27T23:34:32.838Z,5.13
2022-12-27T23:37:34.947Z,6.93
2022-12-27T23:40:36.952Z,5.13
2022-12-27T23:43:56.225Z,8.40
2022-12-27T23:46:58.573Z,5.88
2022-12-27T23:50:00.816Z,4.45
2022-12-27T23:53:03.278Z,3.95
2022-12-27T23:56:20.810Z,7.50
2022-12-27T23:59:23.520Z,11.82
